Time;durP1;ratioP1;P1;durP2;ratioP2;P2;SDS_P1;SDS_P2;PMS_P1;PMS_P2;Temp;Humidity;BMP_temperature;BMP_pressure;BME280_temperature;BME280_humidity;BME280_pressure;Samples;Min_cycle;Max_cycle;Signal;HPM_P1;HPM_P2
2022/04/27 00:00:08;;;;;;;7.37;6.10;;;;;;;;;;8167983;28;20793;-70
2022/04/27 00:04:08;;;;;;;8.35;6.07;;;;;;;;;;8170950;28;20632;-69
2022/04/27 00:08:08;;;;;;;6.32;5.72;;;;;;;;;;8178724;28;20057;-69
2022/04/27 00:12:09;;;;;;;6.72;5.90;;;;;;;;;;8171516;28;20023;-69
2022/04/27 00:16:10;;;;;;;6.40;5.70;;;;;;;;;;8168057;28;20043;-69
2022/04/27 00:20:11;;;;;;;6.23;5.63;;;;;;;;;;8167005;28;20571;-69
2022/04/27 00:24:11;;;;;;;6.82;5.65;;;;;;;;;;8167448;28;20274;-69
2022/04/27 00:28:11;;;;;;;6.82;5.82;;;;;;;;;;8168187;28;20023;-69
2022/04/27 00:32:12;;;;;;;6.47;5.75;;;;;;;;;;8168540;28;20031;-70
2022/04/27 00:36:12;;;;;;;8.30;5.43;;;;;;;;;;8168258;28;20053;-69
2022/04/27 00:40:12;;;;;;;8.13;6.10;;;;;;;;;;8168130;28;20955;-69
2022/04/27 00:44:12;;;;;;;7.13;6.25;;;;;;;;;;8166370;28;20018;-69
2022/04/27 00:48:12;;;;;;;8.48;6.70;;;;;;;;;;8167181;28;20098;-69
2022/04/27 00:52:13;;;;;;;7.78;5.93;;;;;;;;;;8167291;28;20081;-69
2022/04/27 00:56:15;;;;;;;7.82;7.03;;;;;;;;;;8169392;28;20098;-69
2022/04/27 01:00:16;;;;;;;8.23;6.70;;;;;;;;;;8166669;28;20026;-70
2022/04/27 01:04:16;;;;;;;7.78;6.28;;;;;;;;;;8165605;28;20028;-69
2022/04/27 01:08:17;;;;;;;6.90;6.13;;;;;;;;;;8166351;28;20058;-70
2022/04/27 01:12:18;;;;;;;9.52;6.35;;;;;;;;;;8168477;28;20085;-69
2022/04/27 01:16:18;;;;;;;6.85;6.15;;;;;;;;;;8169918;28;20047;-69
2022/04/27 01:20:19;;;;;;;7.72;6.28;;;;;;;;;;8169247;28;20173;-69
2022/04/27 01:24:20;;;;;;;8.00;6.90;;;;;;;;;;8169444;28;20133;-69
2022/04/27 01:28:24;;;;;;;8.27;7.30;;;;;;;;;;8168673;28;21313;-69
2022/04/27 01:32:25;;;;;;;9.52;7.65;;;;;;;;;;8169108;28;20032;-69
2022/04/27 01:36:25;;;;;;;8.15;7.03;;;;;;;;;;8166764;28;20035;-69
2022/04/27 01:40:25;;;;;;;7.88;6.65;;;;;;;;;;8165080;28;20028;-69
2022/04/27 01:44:25;;;;;;;8.48;6.95;;;;;;;;;;8167116;28;20955;-69
2022/04/27 01:48:26;;;;;;;8.45;6.97;;;;;;;;;;8166330;28;20370;-69
2022/04/27 01:56:49;;;;;;;8.48;7.40;;;;;;;;;;8168319;28;20750;-70
2022/04/27 02:00:50;;;;;;;8.55;7.10;;;;;;;;;;8167097;28;20411;-69
2022/04/27 02:04:50;;;;;;;9.00;7.78;;;;;;;;;;8170002;28;20608;-69
2022/04/27 02:08:50;;;;;;;10.43;8.13;;;;;;;;;;8169318;28;20038;-69
2022/04/27 02:12:50;;;;;;;10.48;8.20;;;;;;;;;;8167453;28;20407;-69
2022/04/27 02:16:50;;;;;;;11.23;8.55;;;;;;;;;;8168289;28;20047;-69
2022/04/27 02:20:50;;;;;;;10.10;8.38;;;;;;;;;;8165228;28;20402;-70
2022/04/27 02:24:51;;;;;;;11.30;9.43;;;;;;;;;;8168612;28;20117;-69
2022/04/27 02:28:51;;;;;;;12.10;8.82;;;;;;;;;;8166174;28;20032;-69
2022/04/27 02:32:52;;;;;;;12.13;9.30;;;;;;;;;;8164209;28;20042;-70
2022/04/27 02:36:52;;;;;;;13.05;10.80;;;;;;;;;;8166661;28;20039;-70
2022/04/27 02:40:52;;;;;;;13.05;10.73;;;;;;;;;;8165852;28;20194;-70
2022/04/27 02:44:52;;;;;;;16.90;12.57;;;;;;;;;;8166437;28;20031;-70
2022/04/27 02:53:11;;;;;;;15.02;11.85;;;;;;;;;;8165918;28;20946;-69
2022/04/27 02:57:12;;;;;;;16.25;12.57;;;;;;;;;;8167010;28;20107;-70
2022/04/27 03:01:12;;;;;;;15.35;11.90;;;;;;;;;;8162185;28;20035;-70
2022/04/27 03:05:12;;;;;;;15.95;12.73;;;;;;;;;;8167509;28;20135;-69
2022/04/27 03:09:12;;;;;;;15.77;12.60;;;;;;;;;;8171824;28;20027;-70
2022/04/27 03:13:12;;;;;;;14.38;12.02;;;;;;;;;;8170908;28;20026;-70
2022/04/27 03:17:13;;;;;;;16.03;12.57;;;;;;;;;;8170333;28;20519;-69
2022/04/27 03:21:13;;;;;;;19.98;13.98;;;;;;;;;;8171028;28;20278;-70
2022/04/27 03:25:13;;;;;;;19.95;14.32;;;;;;;;;;8170054;28;20028;-69
2022/04/27 03:29:15;;;;;;;21.73;14.70;;;;;;;;;;8171391;28;20020;-69
2022/04/27 03:33:16;;;;;;;19.10;14.65;;;;;;;;;;8172160;28;20585;-70
2022/04/27 03:37:16;;;;;;;20.75;15.27;;;;;;;;;;8169880;28;20480;-70
2022/04/27 03:41:19;;;;;;;19.53;14.73;;;;;;;;;;8170691;28;20131;-69
2022/04/27 03:45:20;;;;;;;21.02;15.80;;;;;;;;;;8165583;28;21634;-69
2022/04/27 03:49:20;;;;;;;22.33;16.42;;;;;;;;;;8170490;28;20674;-70
2022/04/27 03:53:20;;;;;;;21.65;16.42;;;;;;;;;;8169871;28;20027;-69
2022/04/27 03:57:20;;;;;;;22.50;16.23;;;;;;;;;;8169082;28;20090;-69
2022/04/27 04:01:21;;;;;;;26.98;18.13;;;;;;;;;;8166097;28;20118;-69
2022/04/27 04:05:22;;;;;;;28.53;17.77;;;;;;;;;;8167186;28;20030;-69
2022/04/27 04:09:22;;;;;;;24.20;18.10;;;;;;;;;;8170350;28;20788;-70
2022/04/27 04:13:22;;;;;;;24.55;17.85;;;;;;;;;;8168209;28;20031;-70
2022/04/27 04:17:22;;;;;;;22.83;17.30;;;;;;;;;;8168693;28;20050;-69
2022/04/27 04:21:22;;;;;;;24.13;18.40;;;;;;;;;;8167140;28;20035;-70
2022/04/27 04:29:42;;;;;;;25.23;17.67;;;;;;;;;;8166324;28;20110;-70
2022/04/27 04:33:42;;;;;;;24.20;17.17;;;;;;;;;;8167677;28;20762;-70
2022/04/27 04:37:42;;;;;;;27.52;17.40;;;;;;;;;;8169499;28;20464;-70
2022/04/27 04:41:42;;;;;;;27.40;18.70;;;;;;;;;;8166926;28;20027;-70
2022/04/27 04:45:42;;;;;;;25.65;18.00;;;;;;;;;;8169055;28;20142;-69
2022/04/27 04:49:43;;;;;;;25.10;17.92;;;;;;;;;;8165051;28;20021;-70
2022/04/27 04:53:43;;;;;;;28.33;19.45;;;;;;;;;;8166422;28;20286;-70
2022/04/27 04:57:43;;;;;;;27.77;19.08;;;;;;;;;;8170958;28;20023;-69
2022/04/27 05:01:43;;;;;;;30.00;19.98;;;;;;;;;;8166202;28;20098;-70
2022/04/27 05:05:44;;;;;;;38.63;23.40;;;;;;;;;;8174104;28;20019;-70
2022/04/27 05:09:48;;;;;;;30.45;21.52;;;;;;;;;;8179442;28;20523;-70
2022/04/27 05:13:49;;;;;;;;;;;;;;;;;;8178207;28;20061;-70
2022/04/27 05:17:49;;;;;;;36.22;21.48;;;;;;;;;;8181787;28;19926;-70
2022/04/27 05:21:49;;;;;;;28.60;19.88;;;;;;;;;;8176608;28;20030;-70
2022/04/27 05:25:50;;;;;;;25.38;18.25;;;;;;;;;;8180222;28;20611;-70
2022/04/27 05:34:09;;;;;;;30.65;20.77;;;;;;;;;;8177584;28;20042;-70
2022/04/27 05:38:10;;;;;;;32.85;19.63;;;;;;;;;;8179253;28;20027;-70
2022/04/27 05:42:10;;;;;;;26.98;20.13;;;;;;;;;;8175179;28;20122;-70
2022/04/27 05:46:10;;;;;;;27.48;18.30;;;;;;;;;;8174691;28;20050;-70
2022/04/27 05:50:10;;;;;;;63.38;20.13;;;;;;;;;;8191803;28;20959;-70
2022/04/27 05:54:13;;;;;;;68.53;20.23;;;;;;;;;;8177909;28;20023;-70
2022/04/27 05:58:13;;;;;;;42.72;19.40;;;;;;;;;;8176686;28;20296;-70
2022/04/27 06:02:14;;;;;;;29.75;17.33;;;;;;;;;;8178625;28;20059;-70
2022/04/27 06:06:15;;;;;;;24.30;18.98;;;;;;;;;;8177606;28;20489;-70
2022/04/27 06:10:15;;;;;;;24.60;18.70;;;;;;;;;;8176857;28;20034;-70
2022/04/27 06:14:15;;;;;;;24.63;19.10;;;;;;;;;;8178037;28;20031;-70
2022/04/27 06:18:15;;;;;;;22.70;17.45;;;;;;;;;;8173864;28;20579;-70
2022/04/27 06:22:18;;;;;;;22.95;17.25;;;;;;;;;;8177823;28;20015;-70
2022/04/27 06:26:19;;;;;;;21.48;16.67;;;;;;;;;;8174767;28;20031;-70
2022/04/27 06:30:19;;;;;;;26.30;16.40;;;;;;;;;;8177062;28;20031;-70
2022/04/27 06:34:19;;;;;;;19.63;16.38;;;;;;;;;;8177525;28;20090;-70
2022/04/27 06:38:19;;;;;;;19.08;13.80;;;;;;;;;;8177302;28;20027;-70
2022/04/27 06:42:20;;;;;;;17.10;14.77;;;;;;;;;;8184481;28;21342;-70
2022/04/27 06:46:20;;;;;;;19.67;14.38;;;;;;;;;;8183233;28;20035;-70
2022/04/27 06:50:20;;;;;;;15.52;13.35;;;;;;;;;;8185704;28;20050;-70
2022/04/27 06:54:21;;;;;;;14.20;12.45;;;;;;;;;;8189224;28;20116;-70
2022/04/27 06:58:21;;;;;;;14.73;12.90;;;;;;;;;;8175922;28;20023;-70
2022/04/27 07:02:22;;;;;;;13.88;12.38;;;;;;;;;;8186978;28;20118;-70
2022/04/27 07:06:22;;;;;;;17.60;13.18;;;;;;;;;;8187321;28;20987;-70
2022/04/27 07:10:22;;;;;;;14.80;12.73;;;;;;;;;;8187884;28;20031;-70
2022/04/27 07:14:23;;;;;;;15.50;12.80;;;;;;;;;;8187612;28;20158;-70
2022/04/27 07:18:23;;;;;;;14.73;13.15;;;;;;;;;;8185068;28;20075;-70
2022/04/27 07:22:23;;;;;;;14.63;12.97;;;;;;;;;;8183615;28;20577;-70
2022/04/27 07:26:24;;;;;;;16.13;14.13;;;;;;;;;;8184488;28;20892;-69
2022/04/27 07:30:24;;;;;;;17.38;14.70;;;;;;;;;;8183221;28;20039;-70
2022/04/27 07:34:24;;;;;;;15.48;13.73;;;;;;;;;;8184505;28;20023;-70
2022/04/27 07:38:24;;;;;;;17.27;12.95;;;;;;;;;;8184256;28;20031;-70
2022/04/27 07:42:24;;;;;;;16.57;14.03;;;;;;;;;;8182257;28;20130;-70
2022/04/27 07:46:25;;;;;;;15.98;13.77;;;;;;;;;;8182745;28;20078;-70
2022/04/27 07:50:25;;;;;;;15.18;12.98;;;;;;;;;;8182388;28;20035;-70
2022/04/27 07:54:25;;;;;;;15.85;13.68;;;;;;;;;;8186008;28;20027;-70
2022/04/27 07:58:25;;;;;;;17.77;14.57;;;;;;;;;;8179596;28;20066;-70
2022/04/27 08:02:25;;;;;;;15.75;14.05;;;;;;;;;;8171835;28;20058;-70
2022/04/27 08:06:25;;;;;;;14.50;13.00;;;;;;;;;;8177817;28;20575;-70
2022/04/27 08:10:26;;;;;;;15.65;13.55;;;;;;;;;;8179967;28;20433;-70
2022/04/27 08:14:26;;;;;;;15.27;13.68;;;;;;;;;;8179394;28;20023;-70
2022/04/27 08:18:27;;;;;;;16.50;12.85;;;;;;;;;;8178600;28;20039;-70
2022/04/27 08:22:29;;;;;;;16.13;12.60;;;;;;;;;;8179125;28;20507;-68
2022/04/27 08:26:29;;;;;;;16.08;12.95;;;;;;;;;;8177839;28;20027;-70
2022/04/27 08:30:30;;;;;;;14.30;12.80;;;;;;;;;;8178790;28;20035;-70
2022/04/27 08:34:30;;;;;;;17.83;13.07;;;;;;;;;;8177167;28;20058;-70
2022/04/27 08:38:30;;;;;;;16.65;14.07;;;;;;;;;;8174248;28;20027;-71
2022/04/27 08:42:30;;;;;;;12.77;11.45;;;;;;;;;;8172897;28;20034;-70
2022/04/27 08:46:32;;;;;;;14.63;12.32;;;;;;;;;;8174353;28;20028;-70
2022/04/27 08:50:33;;;;;;;15.25;12.30;;;;;;;;;;8175018;28;20381;-70
2022/04/27 08:54:33;;;;;;;13.93;11.98;;;;;;;;;;8166706;28;20049;-71
2022/04/27 08:58:34;;;;;;;14.27;11.30;;;;;;;;;;8160306;28;20034;-71
2022/04/27 09:02:35;;;;;;;15.15;12.02;;;;;;;;;;8168590;28;20038;-70
2022/04/27 09:06:39;;;;;;;14.30;11.35;;;;;;;;;;8176402;28;20742;-71
2022/04/27 09:10:39;;;;;;;13.07;11.68;;;;;;;;;;8173972;28;20023;-70
2022/04/27 09:14:39;;;;;;;13.40;12.00;;;;;;;;;;8173499;28;20591;-74
2022/04/27 09:23:24;;;;;;;12.48;11.15;;;;;;;;;;8163336;28;20050;-70
2022/04/27 09:27:25;;;;;;;13.40;11.70;;;;;;;;;;8175757;28;20019;-71
2022/04/27 09:31:30;;;;;;;11.93;10.68;;;;;;;;;;8177009;28;20118;-70
2022/04/27 09:35:30;;;;;;;13.45;11.88;;;;;;;;;;8180589;28;20027;-69
2022/04/27 09:39:31;;;;;;;12.48;10.82;;;;;;;;;;8174668;28;20063;-70
2022/04/27 09:43:41;;;;;;;12.60;11.30;;;;;;;;;;8173570;28;20589;-70
2022/04/27 09:47:49;;;;;;;12.00;10.43;;;;;;;;;;8176751;28;20037;-70
2022/04/27 09:51:50;;;;;;;14.32;11.45;;;;;;;;;;8174518;28;20470;-70
2022/04/27 09:55:52;;;;;;;11.48;9.90;;;;;;;;;;8174156;28;20090;-70
2022/04/27 09:59:52;;;;;;;12.13;10.23;;;;;;;;;;8190472;28;20055;-70
2022/04/27 10:03:57;;;;;;;13.60;9.68;;;;;;;;;;8174655;28;20034;-71
2022/04/27 10:07:58;;;;;;;12.48;11.02;;;;;;;;;;8177134;28;20483;-71
2022/04/27 10:11:59;;;;;;;12.52;10.90;;;;;;;;;;8165033;28;20079;-70
2022/04/27 10:16:00;;;;;;;11.23;9.80;;;;;;;;;;8165042;28;20050;-71
2022/04/27 10:20:01;;;;;;;14.18;9.93;;;;;;;;;;8164016;28;20026;-70
2022/04/27 10:24:01;;;;;;;12.13;10.32;;;;;;;;;;8164045;28;20910;-70
2022/04/27 10:28:15;;;;;;;12.95;11.63;;;;;;;;;;8172942;28;20027;-71
2022/04/27 10:32:33;;;;;;;12.05;9.90;;;;;;;;;;8183496;28;20398;-71
2022/04/27 10:36:33;;;;;;;12.00;10.43;;;;;;;;;;8187076;28;20111;-72
2022/04/27 10:40:40;;;;;;;13.52;10.23;;;;;;;;;;8185396;28;20023;-71
2022/04/27 10:44:46;;;;;;;11.68;10.48;;;;;;;;;;8181551;28;20022;-71
2022/04/27 10:48:48;;;;;;;11.88;9.82;;;;;;;;;;8202659;28;20742;-71
2022/04/27 10:52:52;;;;;;;14.13;9.73;;;;;;;;;;8177493;28;20042;-71
2022/04/27 10:56:53;;;;;;;10.68;9.57;;;;;;;;;;8187887;28;20121;-71
2022/04/27 11:01:02;;;;;;;11.65;10.45;;;;;;;;;;8177147;28;20043;-71
2022/04/27 11:05:03;;;;;;;12.20;9.35;;;;;;;;;;8150323;29;20035;-71
2022/04/27 11:09:16;;;;;;;10.75;8.02;;;;;;;;;;8146618;29;20018;-71
2022/04/27 11:13:16;;;;;;;10.73;9.63;;;;;;;;;;8149305;29;20027;-72
2022/04/27 11:17:29;;;;;;;9.10;8.18;;;;;;;;;;8161144;28;20071;-71
2022/04/27 11:21:30;;;;;;;9.73;6.90;;;;;;;;;;8181490;28;20019;-71
2022/04/27 11:25:31;;;;;;;12.38;8.63;;;;;;;;;;8179457;28;20035;-71
2022/04/27 11:29:32;;;;;;;8.15;7.35;;;;;;;;;;8192080;28;20062;-71
2022/04/27 11:33:38;;;;;;;7.53;6.82;;;;;;;;;;8179145;28;20814;-71
2022/04/27 11:37:38;;;;;;;8.98;7.90;;;;;;;;;;8177725;28;20027;-71
2022/04/27 11:41:39;;;;;;;7.00;6.30;;;;;;;;;;8175209;28;20035;-71
2022/04/27 11:45:39;;;;;;;8.60;7.80;;;;;;;;;;8170871;28;21260;-69
2022/04/27 11:49:39;;;;;;;7.30;6.60;;;;;;;;;;8174706;28;20038;-69
2022/04/27 11:53:43;;;;;;;7.40;6.60;;;;;;;;;;8170841;28;20150;-69
2022/04/27 11:57:45;;;;;;;7.13;6.43;;;;;;;;;;8172368;28;20121;-69
2022/04/27 12:01:52;;;;;;;10.50;6.18;;;;;;;;;;8169409;28;20059;-70
2022/04/27 12:05:53;;;;;;;7.72;6.53;;;;;;;;;;8173257;28;20026;-69
2022/04/27 12:09:59;;;;;;;8.30;5.15;;;;;;;;;;8172757;28;20105;-69
2022/04/27 12:13:59;;;;;;;5.68;5.13;;;;;;;;;;8174434;28;20082;-70
2022/04/27 12:18:01;;;;;;;4.45;4.05;;;;;;;;;;8171763;28;20819;-69
2022/04/27 12:22:14;;;;;;;5.63;5.13;;;;;;;;;;8172632;28;20587;-69
2022/04/27 12:26:14;;;;;;;5.40;4.90;;;;;;;;;;8175034;28;20046;-69
2022/04/27 12:30:20;;;;;;;4.70;4.28;;;;;;;;;;8171804;28;20074;-69
2022/04/27 12:39:01;;;;;;;5.45;4.95;;;;;;;;;;8171724;28;20219;-69
2022/04/27 12:43:01;;;;;;;4.30;3.97;;;;;;;;;;8166503;28;20028;-70
2022/04/27 12:47:08;;;;;;;4.07;3.38;;;;;;;;;;8163514;28;20035;-71
2022/04/27 12:51:08;;;;;;;4.10;3.70;;;;;;;;;;8165758;28;20501;-70
2022/04/27 12:55:09;;;;;;;2.60;2.40;;;;;;;;;;8183588;28;20027;-70
2022/04/27 12:59:11;;;;;;;2.60;2.40;;;;;;;;;;8185555;28;20027;-70
2022/04/27 13:03:13;;;;;;;3.25;2.97;;;;;;;;;;8177474;28;20485;-72
2022/04/27 13:07:13;;;;;;;3.75;3.33;;;;;;;;;;8185041;28;20149;-70
2022/04/27 13:15:32;;;;;;;2.75;2.53;;;;;;;;;;8179199;28;20109;-70
2022/04/27 13:19:33;;;;;;;2.30;2.20;;;;;;;;;;8179460;28;20345;-70
2022/04/27 13:23:33;;;;;;;3.72;3.20;;;;;;;;;;8195652;28;20030;-70
2022/04/27 13:27:33;;;;;;;3.30;3.00;;;;;;;;;;8182477;28;20455;-70
2022/04/27 13:31:34;;;;;;;5.50;3.28;;;;;;;;;;8178870;28;20034;-70
2022/04/27 13:35:34;;;;;;;3.20;2.90;;;;;;;;;;8182531;28;20035;-70
2022/04/27 13:39:34;;;;;;;5.90;2.50;;;;;;;;;;8179289;28;20034;-70
2022/04/27 13:43:37;;;;;;;3.07;2.63;;;;;;;;;;8172179;28;20795;-71
2022/04/27 13:47:38;;;;;;;2.65;2.35;;;;;;;;;;8177549;28;20047;-71
2022/04/27 13:51:38;;;;;;;2.88;2.67;;;;;;;;;;8174057;28;20473;-71
2022/04/27 13:55:39;;;;;;;3.72;2.88;;;;;;;;;;8178524;28;20027;-71
2022/04/27 13:59:39;;;;;;;3.40;3.10;;;;;;;;;;8179681;28;20023;-71
2022/04/27 14:03:39;;;;;;;5.35;3.50;;;;;;;;;;8177144;28;20027;-71
2022/04/27 14:07:42;;;;;;;3.10;2.80;;;;;;;;;;8180325;28;20077;-71
2022/04/27 14:20:19;;;;;;;3.45;3.10;;;;;;;;;;8178302;28;20067;-71
2022/04/27 14:24:20;;;;;;;2.95;2.50;;;;;;;;;;8175061;28;20015;-71
2022/04/27 14:28:20;;;;;;;3.20;2.90;;;;;;;;;;8179478;28;20023;-71
2022/04/27 14:32:21;;;;;;;5.50;2.60;;;;;;;;;;8173856;28;20118;-71
2022/04/27 14:36:21;;;;;;;3.65;2.80;;;;;;;;;;8167206;28;20027;-71
2022/04/27 14:40:21;;;;;;;3.90;2.70;;;;;;;;;;8170268;28;20034;-71
2022/04/27 14:44:22;;;;;;;3.20;2.85;;;;;;;;;;8168212;28;20015;-71
2022/04/27 14:48:22;;;;;;;3.10;2.80;;;;;;;;;;8170478;28;20043;-71
2022/04/27 14:52:22;;;;;;;3.65;3.30;;;;;;;;;;8174192;28;20026;-71
2022/04/27 14:56:23;;;;;;;3.90;2.60;;;;;;;;;;8171871;28;20032;-71
2022/04/27 15:00:23;;;;;;;2.70;2.50;;;;;;;;;;8168331;28;20737;-71
2022/04/27 15:04:23;;;;;;;2.80;2.60;;;;;;;;;;8175560;28;20031;-71
2022/04/27 15:08:24;;;;;;;2.90;2.50;;;;;;;;;;8176525;28;20056;-71
2022/04/27 15:12:24;;;;;;;3.37;2.70;;;;;;;;;;8180666;28;20551;-71
2022/04/27 15:16:24;;;;;;;4.13;2.75;;;;;;;;;;8182731;28;20039;-71
2022/04/27 15:24:43;;;;;;;10.73;2.90;;;;;;;;;;8178750;28;20496;-71
2022/04/27 15:28:46;;;;;;;3.10;2.80;;;;;;;;;;8182916;28;20131;-71
2022/04/27 15:32:46;;;;;;;8.30;3.13;;;;;;;;;;8178819;28;20039;-71
2022/04/27 15:36:47;;;;;;;7.33;3.20;;;;;;;;;;8183487;28;20027;-70
2022/04/27 15:40:49;;;;;;;5.18;2.90;;;;;;;;;;8177728;28;20024;-71
2022/04/27 15:44:49;;;;;;;8.02;3.20;;;;;;;;;;8173793;28;20023;-70
2022/04/27 15:48:49;;;;;;;6.32;3.38;;;;;;;;;;8168572;28;20631;-70
2022/04/27 15:52:51;;;;;;;3.95;2.83;;;;;;;;;;8180075;28;20035;-71
2022/04/27 15:56:51;;;;;;;4.20;2.75;;;;;;;;;;8169756;28;20031;-71
2022/04/27 16:00:52;;;;;;;4.50;3.25;;;;;;;;;;8170399;28;20138;-71
2022/04/27 16:04:52;;;;;;;3.13;2.70;;;;;;;;;;8179883;28;20038;-71
2022/04/27 16:08:52;;;;;;;3.95;3.00;;;;;;;;;;8182662;28;20030;-71
2022/04/27 16:12:53;;;;;;;3.00;2.80;;;;;;;;;;8186893;28;20059;-71
2022/04/27 16:16:53;;;;;;;3.70;2.70;;;;;;;;;;8198713;28;20039;-71
2022/04/27 16:25:13;;;;;;;3.20;2.90;;;;;;;;;;8174014;28;20039;-70
2022/04/27 16:29:13;;;;;;;6.60;2.65;;;;;;;;;;8174100;28;20027;-71
2022/04/27 16:33:13;;;;;;;3.17;2.97;;;;;;;;;;8179883;28;20604;-71
2022/04/27 16:37:14;;;;;;;3.40;3.00;;;;;;;;;;8181477;28;20035;-71
2022/04/27 16:41:15;;;;;;;5.70;3.22;;;;;;;;;;8183170;28;20023;-71
2022/04/27 16:45:15;;;;;;;3.60;3.25;;;;;;;;;;8182149;28;20026;-71
2022/04/27 16:49:16;;;;;;;5.10;3.25;;;;;;;;;;8186234;28;20840;-71
2022/04/27 16:53:16;;;;;;;6.20;3.30;;;;;;;;;;8187293;28;20035;-71
2022/04/27 16:57:19;;;;;;;4.43;3.00;;;;;;;;;;8190463;28;20023;-71
2022/04/27 17:01:20;;;;;;;4.23;2.90;;;;;;;;;;8186699;28;20266;-71
2022/04/27 17:05:20;;;;;;;6.57;2.95;;;;;;;;;;8178630;28;20026;-71
2022/04/27 17:09:21;;;;;;;3.47;2.80;;;;;;;;;;8173892;28;20023;-71
2022/04/27 17:13:22;;;;;;;7.30;2.90;;;;;;;;;;8182945;28;20038;-71
2022/04/27 17:17:23;;;;;;;4.07;2.83;;;;;;;;;;8181166;28;20696;-71
2022/04/27 17:21:23;;;;;;;2.78;2.58;;;;;;;;;;8182805;28;20023;-71
2022/04/27 17:29:45;;;;;;;3.35;2.55;;;;;;;;;;8179031;28;20119;-71
2022/04/27 17:33:46;;;;;;;3.45;2.80;;;;;;;;;;8201805;28;20111;-72
2022/04/27 17:37:47;;;;;;;3.42;2.40;;;;;;;;;;8189411;28;20027;-71
2022/04/27 17:41:47;;;;;;;3.03;2.13;;;;;;;;;;8175195;28;20019;-71
2022/04/27 17:45:47;;;;;;;2.63;2.42;;;;;;;;;;8177445;28;20083;-72
2022/04/27 17:49:48;;;;;;;4.60;2.25;;;;;;;;;;8179174;28;20023;-71
2022/04/27 17:53:50;;;;;;;3.97;2.20;;;;;;;;;;8174077;28;20027;-72
2022/04/27 17:57:51;;;;;;;2.85;2.20;;;;;;;;;;8177930;28;20043;-72
2022/04/27 18:01:54;;;;;;;2.90;2.35;;;;;;;;;;8178212;28;20086;-72
2022/04/27 18:05:54;;;;;;;2.40;2.20;;;;;;;;;;8175932;28;20115;-71
2022/04/27 18:09:54;;;;;;;4.53;2.20;;;;;;;;;;8179340;28;20099;-71
2022/04/27 18:13:54;;;;;;;3.10;2.58;;;;;;;;;;8180989;28;20279;-71
2022/04/27 18:17:54;;;;;;;2.20;2.00;;;;;;;;;;8181407;28;20047;-71
2022/04/27 18:21:56;;;;;;;2.58;2.10;;;;;;;;;;8175368;28;20026;-71
2022/04/27 18:25:56;;;;;;;2.40;2.20;;;;;;;;;;8175013;28;20484;-71
2022/04/27 18:29:57;;;;;;;4.13;2.45;;;;;;;;;;8176582;28;20030;-71
2022/04/27 18:33:58;;;;;;;2.13;1.75;;;;;;;;;;8168988;28;20050;-71
2022/04/27 18:37:58;;;;;;;1.98;1.88;;;;;;;;;;8178767;28;20038;-71
2022/04/27 18:41:58;;;;;;;3.70;2.40;;;;;;;;;;8173167;28;20163;-71
2022/04/27 18:50:19;;;;;;;5.15;1.90;;;;;;;;;;8170899;28;20066;-71
2022/04/27 18:54:19;;;;;;;2.08;1.90;;;;;;;;;;8178075;28;20047;-71
2022/04/27 18:58:21;;;;;;;2.90;2.10;;;;;;;;;;8175751;28;20121;-71
2022/04/27 19:02:23;;;;;;;2.78;2.40;;;;;;;;;;8167468;28;20028;-71
2022/04/27 19:06:23;;;;;;;4.88;2.40;;;;;;;;;;8169746;28;20031;-70
2022/04/27 19:10:25;;;;;;;4.53;2.40;;;;;;;;;;8170400;28;20035;-70
2022/04/27 19:14:26;;;;;;;3.22;2.50;;;;;;;;;;8170687;28;20026;-71
2022/04/27 19:18:26;;;;;;;3.47;2.40;;;;;;;;;;8170445;28;20035;-71
2022/04/27 19:22:26;;;;;;;5.47;3.07;;;;;;;;;;8169354;28;20019;-71
2022/04/27 19:26:27;;;;;;;3.42;2.75;;;;;;;;;;8164759;28;20262;-70
2022/04/27 19:30:27;;;;;;;2.40;2.20;;;;;;;;;;8162290;28;20038;-70
2022/04/27 19:34:27;;;;;;;3.15;2.63;;;;;;;;;;8177031;28;20034;-70
2022/04/27 19:38:29;;;;;;;2.60;2.40;;;;;;;;;;8162165;28;20187;-70
2022/04/27 19:42:29;;;;;;;3.13;2.30;;;;;;;;;;8161710;28;20393;-70
2022/04/27 19:46:30;;;;;;;3.72;2.50;;;;;;;;;;8161270;28;20086;-70
2022/04/27 19:50:30;;;;;;;3.08;2.38;;;;;;;;;;8162350;28;20069;-70
2022/04/27 19:54:31;;;;;;;3.00;2.73;;;;;;;;;;8162315;28;20031;-70
2022/04/27 19:58:31;;;;;;;3.40;2.83;;;;;;;;;;8162375;28;20299;-70
2022/04/27 20:02:36;;;;;;;4.43;2.70;;;;;;;;;;8158943;28;20279;-70
2022/04/27 20:06:36;;;;;;;3.17;2.65;;;;;;;;;;8176665;28;20069;-70
2022/04/27 20:10:37;;;;;;;4.57;2.60;;;;;;;;;;8161777;28;20023;-70
2022/04/27 20:14:37;;;;;;;2.60;2.40;;;;;;;;;;8161660;28;20026;-70
2022/04/27 20:18:37;;;;;;;5.23;2.70;;;;;;;;;;8158432;28;20039;-70
2022/04/27 20:22:37;;;;;;;2.80;2.50;;;;;;;;;;8162323;28;20023;-69
2022/04/27 20:26:38;;;;;;;2.58;2.20;;;;;;;;;;8168336;28;20042;-69
2022/04/27 20:30:40;;;;;;;4.10;2.67;;;;;;;;;;8159006;28;20180;-70
2022/04/27 20:34:40;;;;;;;2.80;2.35;;;;;;;;;;8158820;28;20049;-70
2022/04/27 20:38:43;;;;;;;4.00;3.13;;;;;;;;;;8158854;28;20042;-70
2022/04/27 20:42:45;;;;;;;2.85;2.65;;;;;;;;;;8161649;28;20149;-70
2022/04/27 20:46:45;;;;;;;4.20;2.72;;;;;;;;;;8157599;28;20055;-70
2022/04/27 20:50:45;;;;;;;3.70;2.88;;;;;;;;;;8159354;28;20043;-69
2022/04/27 20:54:46;;;;;;;3.33;3.03;;;;;;;;;;8158324;28;20112;-70
2022/04/27 20:58:47;;;;;;;4.32;2.47;;;;;;;;;;8158727;28;20120;-70
2022/04/27 21:02:48;;;;;;;3.10;2.80;;;;;;;;;;8150450;28;20113;-69
2022/04/27 21:06:48;;;;;;;4.38;2.78;;;;;;;;;;8149218;28;20028;-70
2022/04/27 21:10:48;;;;;;;2.80;2.60;;;;;;;;;;8150201;28;20039;-69
2022/04/27 21:14:49;;;;;;;2.97;2.60;;;;;;;;;;8149588;28;20027;-70
2022/04/27 21:18:49;;;;;;;3.22;2.60;;;;;;;;;;8149080;28;20109;-70
2022/04/27 21:22:49;;;;;;;2.70;2.50;;;;;;;;;;8149601;28;20415;-70
2022/04/27 21:26:51;;;;;;;3.73;2.83;;;;;;;;;;8148200;28;20041;-70
2022/04/27 21:30:52;;;;;;;3.28;2.72;;;;;;;;;;8152164;28;21094;-69
2022/04/27 21:34:52;;;;;;;2.90;2.63;;;;;;;;;;8162612;28;20392;-69
2022/04/27 21:38:52;;;;;;;3.10;2.80;;;;;;;;;;8163605;28;21266;-69
2022/04/27 21:42:53;;;;;;;4.60;2.65;;;;;;;;;;8162143;28;20023;-69
2022/04/27 21:46:53;;;;;;;2.92;2.63;;;;;;;;;;8163065;28;20765;-70
2022/04/27 21:50:54;;;;;;;3.03;2.75;;;;;;;;;;8160651;28;20046;-69
2022/04/27 21:54:54;;;;;;;2.97;2.70;;;;;;;;;;8163322;28;20264;-69
2022/04/27 21:58:57;;;;;;;2.88;2.67;;;;;;;;;;8163499;28;20174;-69
2022/04/27 22:02:59;;;;;;;3.28;2.97;;;;;;;;;;8163056;28;20035;-69
2022/04/27 22:06:59;;;;;;;3.33;2.75;;;;;;;;;;8162913;28;20027;-69
2022/04/27 22:10:59;;;;;;;5.32;2.95;;;;;;;;;;8166453;28;20042;-70
2022/04/27 22:14:59;;;;;;;3.20;2.90;;;;;;;;;;8170589;28;20767;-69
2022/04/27 22:19:00;;;;;;;5.80;3.40;;;;;;;;;;8168858;28;20083;-69
2022/04/27 22:23:00;;;;;;;2.67;2.47;;;;;;;;;;8166567;28;20012;-69
2022/04/27 22:27:00;;;;;;;3.60;2.90;;;;;;;;;;8169672;28;20046;-69
2022/04/27 22:31:01;;;;;;;2.58;2.38;;;;;;;;;;8169034;28;20043;-69
2022/04/27 22:35:01;;;;;;;3.75;2.45;;;;;;;;;;8169420;28;20035;-69
2022/04/27 22:39:01;;;;;;;4.35;2.72;;;;;;;;;;8168546;28;20031;-69
2022/04/27 22:43:01;;;;;;;4.15;2.60;;;;;;;;;;8177301;28;20023;-69
2022/04/27 22:47:02;;;;;;;3.75;2.83;;;;;;;;;;8163232;28;20071;-69
2022/04/27 22:51:02;;;;;;;2.60;2.40;;;;;;;;;;8164679;28;20031;-69
2022/04/27 22:55:03;;;;;;;3.08;2.60;;;;;;;;;;8149948;29;20329;-69
2022/04/27 22:59:04;;;;;;;2.38;2.17;;;;;;;;;;8149582;29;20026;-70
2022/04/27 23:03:04;;;;;;;4.28;2.53;;;;;;;;;;8169220;28;20032;-69
2022/04/27 23:07:05;;;;;;;5.43;2.38;;;;;;;;;;8179468;28;20532;-69
2022/04/27 23:11:14;;;;;;;2.85;2.63;;;;;;;;;;8179544;28;20019;-69
2022/04/27 23:15:14;;;;;;;3.42;2.53;;;;;;;;;;8180431;28;20855;-69
2022/04/27 23:19:14;;;;;;;2.63;2.42;;;;;;;;;;8181177;28;20054;-69
2022/04/27 23:23:14;;;;;;;4.18;2.60;;;;;;;;;;8176568;28;20891;-69
2022/04/27 23:27:15;;;;;;;3.00;2.70;;;;;;;;;;8183285;28;20023;-69
2022/04/27 23:31:15;;;;;;;4.22;2.70;;;;;;;;;;8180033;28;20035;-69
2022/04/27 23:35:17;;;;;;;6.03;2.40;;;;;;;;;;8176496;28;20571;-68
2022/04/27 23:39:17;;;;;;;2.75;2.55;;;;;;;;;;8178699;28;20816;-69
2022/04/27 23:43:19;;;;;;;2.67;2.45;;;;;;;;;;8175395;28;20031;-69
2022/04/27 23:47:19;;;;;;;3.65;2.80;;;;;;;;;;8177845;28;20142;-69
2022/04/27 23:51:19;;;;;;;3.00;2.70;;;;;;;;;;8190394;28;20630;-69
2022/04/27 23:55:19;;;;;;;3.60;2.15;;;;;;;;;;8178203;28;20759;-69
2022/04/27 23:59:20;;;;;;;3.38;2.40;;;;;;;;;;8176937;28;20614;-69
